Time;durP1;ratioP1;P1;durP2;ratioP2;P2;SDS_P1;SDS_P2;PMS_P1;PMS_P2;Temp;Humidity;BMP_temperature;BMP_pressure;BME280_temperature;BME280_humidity;BME280_pressure;Samples;Min_cycle;Max_cycle;Signal;HPM_P1;HPM_P2
2023/05/30 00:01:08;;;;;;;5.53;4.03;;;15.80;99.90;;;;;;5106108;28;20172;-31
2023/05/30 00:03:44;;;;;;;6.93;4.10;;;15.70;99.90;;;;;;5101057;27;20195;-31
2023/05/30 00:06:22;;;;;;;5.93;3.70;;;15.70;99.90;;;;;;5110281;28;20180;-31
2023/05/30 00:09:02;;;;;;;5.30;3.90;;;15.60;99.90;;;;;;5120991;27;20175;-31
2023/05/30 00:11:48;;;;;;;8.20;4.13;;;15.60;99.90;;;;;;5091953;27;20186;-30
2023/05/30 00:14:23;;;;;;;5.67;3.63;;;15.60;99.90;;;;;;5120510;27;20215;-30
2023/05/30 00:17:05;;;;;;;4.60;3.60;;;15.60;99.90;;;;;;5108544;27;20187;-31
2023/05/30 00:19:42;;;;;;;5.60;4.00;;;15.70;99.90;;;;;;5126540;27;20183;-31
2023/05/30 00:22:18;;;;;;;5.73;3.50;;;15.70;99.90;;;;;;5101651;27;20175;-31
2023/05/30 00:24:59;;;;;;;5.10;4.00;;;15.70;99.90;;;;;;5124031;27;20203;-32
2023/05/30 00:27:33;;;;;;;4.73;3.90;;;15.80;99.90;;;;;;5117679;27;20187;-31
2023/05/30 00:30:08;;;;;;;4.87;3.77;;;15.80;99.90;;;;;;5123335;27;20182;-30
2023/05/30 00:32:37;;;;;;;4.77;3.57;;;15.70;99.90;;;;;;5105312;28;20248;-30
2023/05/30 00:35:13;;;;;;;5.53;3.70;;;15.70;99.90;;;;;;5104181;28;20192;-31
2023/05/30 00:37:45;;;;;;;7.43;4.23;;;15.70;99.90;;;;;;5096765;27;20205;-31
2023/05/30 00:40:22;;;;;;;4.60;3.40;;;15.70;99.90;;;;;;5088584;27;20178;-30
2023/05/30 00:43:00;;;;;;;7.67;4.27;;;15.70;99.90;;;;;;5106099;27;20681;-31
2023/05/30 00:45:32;;;;;;;6.13;3.90;;;15.70;99.90;;;;;;5115872;27;20275;-30
2023/05/30 00:48:07;;;;;;;5.87;4.00;;;15.70;99.90;;;;;;5110164;27;20201;-30
2023/05/30 00:50:49;;;;;;;6.33;4.20;;;15.60;99.90;;;;;;5110877;27;20198;-31
2023/05/30 00:53:29;;;;;;;5.43;3.60;;;15.60;99.90;;;;;;5095098;28;20200;-31
2023/05/30 00:56:01;;;;;;;5.37;3.50;;;15.60;99.90;;;;;;5112863;27;20186;-31
2023/05/30 00:58:41;;;;;;;5.47;3.87;;;15.60;99.90;;;;;;5106902;27;20290;-31
2023/05/30 01:01:35;;;;;;;5.60;4.17;;;15.60;99.90;;;;;;5116570;27;20187;-31
2023/05/30 01:04:18;;;;;;;5.97;3.87;;;15.50;99.90;;;;;;5117604;27;20195;-31
2023/05/30 01:06:59;;;;;;;5.93;4.13;;;15.50;99.90;;;;;;5096271;27;20187;-31
2023/05/30 01:09:48;;;;;;;6.87;4.00;;;15.50;99.90;;;;;;5112346;28;20210;-31
2023/05/30 01:12:51;;;;;;;4.50;3.60;;;15.50;99.90;;;;;;5089695;28;20183;-31
2023/05/30 01:16:05;;;;;;;5.90;3.87;;;15.50;99.90;;;;;;5129134;27;20230;-31
2023/05/30 01:19:19;;;;;;;7.67;4.17;;;15.30;99.90;;;;;;5093722;27;20218;-31
2023/05/30 01:21:55;;;;;;;4.03;3.63;;;15.30;99.90;;;;;;5064416;27;20240;-31
2023/05/30 01:24:38;;;;;;;4.97;3.30;;;15.20;99.90;;;;;;5097033;27;20228;-30
2023/05/30 01:27:36;;;;;;;7.40;3.90;;;15.20;99.90;;;;;;5076108;28;20176;-31
2023/05/30 01:30:19;;;;;;;5.03;3.80;;;15.20;99.90;;;;;;5096861;28;20194;-32
2023/05/30 01:33:00;;;;;;;4.73;3.97;;;15.10;99.90;;;;;;5090209;27;20183;-30
2023/05/30 01:35:45;;;;;;;6.83;3.90;;;15.20;99.90;;;;;;5112277;27;20646;-32
2023/05/30 01:38:39;;;;;;;7.00;3.90;;;15.10;99.90;;;;;;5093521;28;20220;-31
2023/05/30 01:41:31;;;;;;;6.23;4.40;;;15.10;99.90;;;;;;5116150;27;20259;-30
2023/05/30 01:44:08;;;;;;;5.30;3.87;;;15.00;99.90;;;;;;5100804;27;20196;-31
2023/05/30 01:46:50;;;;;;;6.33;3.97;;;15.00;99.90;;;;;;5094444;28;20178;-31
2023/05/30 01:49:37;;;;;;;4.87;3.97;;;15.00;99.90;;;;;;5078852;28;20179;-31
2023/05/30 01:52:18;;;;;;;5.40;3.73;;;15.00;99.90;;;;;;5110088;28;20182;-30
2023/05/30 01:54:58;;;;;;;5.27;4.00;;;15.00;99.90;;;;;;5126948;27;20198;-31
2023/05/30 01:57:32;;;;;;;6.30;4.10;;;14.90;99.90;;;;;;5100271;28;20316;-30
2023/05/30 02:00:26;;;;;;;5.97;4.00;;;14.80;99.90;;;;;;5104509;28;20168;-31
2023/05/30 02:02:57;;;;;;;7.60;4.10;;;14.80;99.90;;;;;;5123270;27;20171;-31
2023/05/30 02:05:37;;;;;;;5.53;4.10;;;14.80;99.90;;;;;;5092250;27;20218;-31
2023/05/30 02:08:13;;;;;;;5.37;4.27;;;14.80;99.90;;;;;;5101656;28;20187;-31
2023/05/30 02:10:53;;;;;;;5.53;4.17;;;14.70;99.90;;;;;;5088105;27;20179;-31
2023/05/30 02:13:36;;;;;;;7.17;4.07;;;14.70;99.90;;;;;;5103788;27;20248;-30
2023/05/30 02:16:08;;;;;;;6.07;3.60;;;14.70;99.90;;;;;;5122385;27;20180;-31
2023/05/30 02:18:40;;;;;;;7.77;4.27;;;14.60;99.90;;;;;;5095320;27;20214;-32
2023/05/30 02:21:17;;;;;;;6.63;4.10;;;14.60;99.90;;;;;;5104297;27;20174;-31
2023/05/30 02:23:56;;;;;;;7.93;4.40;;;14.60;99.90;;;;;;5104468;27;20207;-31
2023/05/30 02:26:36;;;;;;;5.23;4.17;;;14.60;99.90;;;;;;5119028;27;20243;-31
2023/05/30 02:29:11;;;;;;;7.43;4.03;;;14.60;99.90;;;;;;5104330;28;20252;-31
2023/05/30 02:31:48;;;;;;;4.77;3.60;;;14.50;99.90;;;;;;5103847;27;20178;-29
2023/05/30 02:34:26;;;;;;;4.80;4.30;;;14.50;99.90;;;;;;5102264;27;20206;-30
2023/05/30 02:37:02;;;;;;;8.00;4.60;;;14.50;99.90;;;;;;5111922;27;20188;-31
2023/05/30 02:39:37;;;;;;;6.37;4.40;;;14.40;99.90;;;;;;5107420;27;20245;-30
2023/05/30 02:42:12;;;;;;;5.30;4.10;;;14.30;99.90;;;;;;5093013;28;20172;-31
2023/05/30 02:44:46;;;;;;;7.13;3.70;;;14.20;99.90;;;;;;5105931;27;20207;-30
2023/05/30 02:47:28;;;;;;;6.00;4.47;;;14.10;99.90;;;;;;5098108;27;20179;-32
2023/05/30 02:50:00;;;;;;;6.63;4.33;;;14.10;99.90;;;;;;5109527;27;20209;-30
2023/05/30 02:52:30;;;;;;;5.97;4.10;;;14.00;99.90;;;;;;5103725;28;20198;-31
2023/05/30 02:55:09;;;;;;;5.77;4.00;;;14.00;99.90;;;;;;5098311;27;20201;-30
2023/05/30 02:58:06;;;;;;;4.70;3.97;;;14.00;99.90;;;;;;5115737;27;20215;-30
2023/05/30 03:00:50;;;;;;;4.53;3.57;;;14.10;99.90;;;;;;5111699;27;20185;-32
2023/05/30 03:03:29;;;;;;;6.77;4.10;;;14.10;99.90;;;;;;5118932;27;20243;-30
2023/05/30 03:06:42;;;;;;;6.07;4.03;;;14.00;99.90;;;;;;5103061;28;20190;-30
2023/05/30 03:09:37;;;;;;;7.07;3.93;;;14.00;99.90;;;;;;5106206;27;20195;-30
2023/05/30 03:12:38;;;;;;;8.77;4.03;;;14.00;99.90;;;;;;5103787;28;20206;-30
2023/05/30 03:15:20;;;;;;;9.60;4.70;;;14.10;99.90;;;;;;5091282;27;20250;-32
2023/05/30 03:17:57;;;;;;;6.00;3.93;;;14.10;99.90;;;;;;5126224;27;20206;-30
2023/05/30 03:20:47;;;;;;;6.67;4.13;;;14.00;99.90;;;;;;5103027;28;20179;-30
2023/05/30 03:23:23;;;;;;;6.90;4.53;;;14.00;99.90;;;;;;5084608;27;20209;-31
2023/05/30 03:26:03;;;;;;;7.00;4.83;;;14.00;99.90;;;;;;5091383;27;20194;-31
2023/05/30 03:28:42;;;;;;;8.13;4.20;;;14.00;99.90;;;;;;5099996;28;20203;-31
2023/05/30 03:31:35;;;;;;;4.93;4.30;;;13.90;99.90;;;;;;5114913;27;20258;-30
2023/05/30 03:34:12;;;;;;;5.57;4.43;;;13.80;99.90;;;;;;5109959;28;20202;-30
2023/05/30 03:36:57;;;;;;;7.13;4.17;;;13.80;99.90;;;;;;5104171;27;20186;-30
2023/05/30 03:39:38;;;;;;;6.73;4.50;;;13.70;99.90;;;;;;5118610;27;20181;-31
2023/05/30 03:42:12;;;;;;;5.63;4.43;;;13.70;99.90;;;;;;5104876;28;20175;-30
2023/05/30 03:44:50;;;;;;;7.60;4.37;;;13.70;99.90;;;;;;5091440;27;20287;-31
2023/05/30 03:47:26;;;;;;;9.23;4.47;;;13.60;99.90;;;;;;5097860;27;20175;-31
2023/05/30 03:49:55;;;;;;;6.33;4.37;;;13.60;99.90;;;;;;5101045;27;20190;-30
2023/05/30 03:52:30;;;;;;;8.93;4.63;;;13.60;99.90;;;;;;5105054;27;20206;-31
2023/05/30 03:55:08;;;;;;;4.70;4.27;;;13.60;99.90;;;;;;5103212;27;20229;-31
2023/05/30 03:57:47;;;;;;;5.43;4.17;;;13.60;99.90;;;;;;5118804;27;20233;-30
2023/05/30 04:00:32;;;;;;;6.67;4.70;;;13.50;99.90;;;;;;5093911;27;20183;-30
2023/05/30 04:03:03;;;;;;;8.77;4.63;;;13.50;99.90;;;;;;5106413;27;20182;-30
2023/05/30 04:05:38;;;;;;;7.73;4.87;;;13.60;99.90;;;;;;5113166;27;20182;-31
2023/05/30 04:08:13;;;;;;;6.33;4.50;;;13.60;99.90;;;;;;5111180;27;20181;-31
2023/05/30 04:10:51;;;;;;;6.57;5.30;;;13.60;99.90;;;;;;5093458;27;20182;-30
2023/05/30 04:13:28;;;;;;;8.10;4.73;;;13.60;99.90;;;;;;5094577;27;20201;-30
2023/05/30 04:16:15;;;;;;;6.60;4.83;;;13.60;99.90;;;;;;5082414;27;20194;-30
2023/05/30 04:18:47;;;;;;;9.17;4.90;;;13.60;99.90;;;;;;5101537;27;20219;-30
2023/05/30 04:21:22;;;;;;;8.93;4.83;;;13.60;99.90;;;;;;5101446;27;20186;-30
2023/05/30 04:24:12;;;;;;;6.23;4.63;;;13.60;99.90;;;;;;5092135;27;20202;-31
2023/05/30 04:26:44;;;;;;;5.23;4.17;;;13.50;99.90;;;;;;5095549;27;20182;-30
2023/05/30 04:29:18;;;;;;;6.03;4.87;;;13.60;99.90;;;;;;5088882;27;20282;-30
2023/05/30 04:31:57;;;;;;;7.37;5.27;;;13.50;99.90;;;;;;5097430;27;20224;-31
2023/05/30 04:34:39;;;;;;;6.10;4.60;;;13.50;99.90;;;;;;5131454;27;20225;-31
2023/05/30 04:37:19;;;;;;;9.77;4.50;;;13.60;99.90;;;;;;5096577;27;20215;-31
2023/05/30 04:39:48;;;;;;;6.20;4.67;;;13.60;99.90;;;;;;5103775;27;20264;-30
2023/05/30 04:42:36;;;;;;;5.67;4.43;;;13.70;99.90;;;;;;5099147;27;20181;-31
2023/05/30 04:45:18;;;;;;;5.00;4.50;;;13.70;99.90;;;;;;5105717;27;20236;-31
2023/05/30 04:47:57;;;;;;;8.20;5.00;;;13.80;99.90;;;;;;5126233;27;20215;-30
2023/05/30 04:50:37;;;;;;;6.87;4.77;;;13.80;99.90;;;;;;5108042;27;20414;-31
2023/05/30 04:53:06;;;;;;;6.20;4.90;;;13.80;99.90;;;;;;5107797;27;20182;-30
2023/05/30 04:55:44;;;;;;;7.37;5.10;;;13.80;99.90;;;;;;5093733;28;20285;-31
2023/05/30 04:58:18;;;;;;;6.10;4.53;;;13.80;99.90;;;;;;5099921;28;20361;-30
2023/05/30 05:00:48;;;;;;;7.57;5.20;;;13.80;99.90;;;;;;5082330;27;20282;-31
2023/05/30 05:03:31;;;;;;;5.77;4.50;;;13.90;99.90;;;;;;5106524;27;20194;-31
2023/05/30 05:06:11;;;;;;;6.70;4.90;;;13.90;99.90;;;;;;5116917;27;20175;-30
2023/05/30 05:08:49;;;;;;;5.67;4.63;;;14.00;99.90;;;;;;5102423;27;20190;-30
2023/05/30 05:11:32;;;;;;;8.00;5.00;;;14.10;99.90;;;;;;5119604;27;20183;-30
2023/05/30 05:14:08;;;;;;;6.47;5.07;;;14.10;99.90;;;;;;5116321;27;20747;-30
2023/05/30 05:17:12;;;;;;;7.43;4.50;;;14.10;99.90;;;;;;5119575;27;20270;-31
2023/05/30 05:19:53;;;;;;;8.80;5.30;;;14.20;99.90;;;;;;5112023;27;20278;-31
2023/05/30 05:22:40;;;;;;;8.77;5.00;;;14.20;99.90;;;;;;5094004;28;20273;-31
2023/05/30 05:25:31;;;;;;;7.73;5.03;;;14.20;99.90;;;;;;5103200;27;20194;-31
2023/05/30 05:28:09;;;;;;;7.40;4.90;;;14.30;99.90;;;;;;5117570;27;20187;-30
2023/05/30 05:30:44;;;;;;;6.00;4.80;;;14.30;99.90;;;;;;5118773;27;20175;-30
2023/05/30 05:33:19;;;;;;;6.10;4.80;;;14.40;99.90;;;;;;5124360;27;20224;-31
2023/05/30 05:36:02;;;;;;;8.00;5.23;;;14.50;99.90;;;;;;5100470;27;20178;-30
2023/05/30 05:38:41;;;;;;;9.87;5.20;;;14.60;99.90;;;;;;5121819;27;20237;-31
2023/05/30 05:41:17;;;;;;;9.13;5.20;;;14.70;99.90;;;;;;5097748;27;20210;-31
2023/05/30 05:43:51;;;;;;;7.10;5.10;;;14.80;99.90;;;;;;5123831;27;20202;-30
2023/05/30 05:46:30;;;;;;;6.97;5.20;;;14.90;99.90;;;;;;5118338;27;20229;-31
2023/05/30 05:49:10;;;;;;;7.00;5.00;;;15.10;99.90;;;;;;5112095;27;20270;-31
2023/05/30 05:51:53;;;;;;;6.60;5.13;;;15.20;99.90;;;;;;5092254;27;20183;-31
2023/05/30 05:54:31;;;;;;;9.53;5.43;;;15.40;99.90;;;;;;5128994;27;20285;-31
2023/05/30 05:56:59;;;;;;;8.50;4.93;;;15.50;99.90;;;;;;5116608;27;20653;-31
2023/05/30 05:59:39;;;;;;;5.63;4.47;;;15.60;99.90;;;;;;5113991;27;20229;-31
2023/05/30 06:02:46;;;;;;;9.67;4.87;;;15.80;99.90;;;;;;5110278;27;20233;-32
2023/05/30 06:05:16;;;;;;;7.60;4.40;;;15.90;99.90;;;;;;5098442;27;20199;-32
2023/05/30 06:07:41;;;;;;;6.80;4.17;;;16.00;99.90;;;;;;5103129;27;20217;-31
2023/05/30 06:10:08;;;;;;;5.47;4.13;;;16.20;99.90;;;;;;5103603;27;20186;-32
2023/05/30 06:12:40;;;;;;;6.50;4.70;;;16.30;99.90;;;;;;5098323;27;20221;-31
2023/05/30 06:15:06;;;;;;;7.53;4.53;;;16.50;99.90;;;;;;5132015;27;20215;-32
2023/05/30 06:17:32;;;;;;;9.10;5.23;;;16.60;99.90;;;;;;5131504;27;20266;-32
2023/05/30 06:19:58;;;;;;;6.97;4.43;;;16.80;99.90;;;;;;5118905;27;20262;-32
2023/05/30 06:22:24;;;;;;;5.20;4.40;;;16.90;99.90;;;;;;5088588;27;20186;-32
2023/05/30 06:24:49;;;;;;;7.10;4.50;;;17.10;99.90;;;;;;5117833;27;20191;-32
2023/05/30 06:27:15;;;;;;;7.00;4.83;;;17.20;99.90;;;;;;5087782;27;20187;-32
2023/05/30 06:29:41;;;;;;;7.20;4.60;;;17.40;99.90;;;;;;5095009;27;20218;-32
2023/05/30 06:32:10;;;;;;;8.40;4.83;;;17.50;99.90;;;;;;5103454;27;20179;-33
2023/05/30 06:34:36;;;;;;;7.40;4.70;;;17.70;99.90;;;;;;5104487;27;20195;-32
2023/05/30 06:37:02;;;;;;;6.22;4.68;;;17.70;99.90;;;;;;5103747;27;20274;-32
2023/05/30 06:39:28;;;;;;;6.23;4.20;;;17.80;99.90;;;;;;5100295;27;20191;-32
2023/05/30 06:41:55;;;;;;;5.68;4.43;;;17.80;99.90;;;;;;5130401;27;20184;-32
2023/05/30 06:44:36;;;;;;;5.93;4.47;;;17.80;99.90;;;;;;5114308;27;20199;-33
2023/05/30 06:47:02;;;;;;;5.47;4.30;;;17.90;99.90;;;;;;5126175;27;20179;-32
2023/05/30 06:49:31;;;;;;;6.63;4.43;;;18.00;99.90;;;;;;5123096;27;20271;-32
2023/05/30 06:51:57;;;;;;;6.82;4.43;;;18.10;99.90;;;;;;5128482;27;20172;-32
2023/05/30 06:54:24;;;;;;;6.95;4.55;;;18.20;99.90;;;;;;5093154;27;20199;-32
2023/05/30 06:56:50;;;;;;;7.03;4.43;;;18.20;99.90;;;;;;5113508;27;20207;-32
2023/05/30 06:59:16;;;;;;;9.77;4.95;;;18.20;99.90;;;;;;5115724;27;20206;-33
2023/05/30 07:01:42;;;;;;;6.35;4.40;;;18.30;99.90;;;;;;5105561;27;20172;-33
2023/05/30 07:04:08;;;;;;;7.32;4.20;;;18.20;99.90;;;;;;5111168;28;20195;-32
2023/05/30 07:06:34;;;;;;;8.82;4.50;;;18.20;99.90;;;;;;5106509;27;20400;-32
2023/05/30 07:09:00;;;;;;;7.00;4.13;;;18.30;99.90;;;;;;5118484;27;20200;-32
2023/05/30 07:11:26;;;;;;;5.88;4.53;;;18.50;99.90;;;;;;5108895;27;20187;-33
2023/05/30 07:13:51;;;;;;;7.70;4.32;;;18.50;99.90;;;;;;5089878;27;20211;-32
2023/05/30 07:16:17;;;;;;;8.43;4.30;;;18.60;99.90;;;;;;5122630;27;20276;-32
2023/05/30 07:18:43;;;;;;;7.82;4.35;;;18.80;99.90;;;;;;5111930;27;20207;-32
2023/05/30 07:21:10;;;;;;;6.38;4.15;;;18.80;99.90;;;;;;5106455;27;20213;-33
2023/05/30 07:23:36;;;;;;;5.80;4.03;;;18.90;99.90;;;;;;5107541;27;20244;-32
2023/05/30 07:26:01;;;;;;;6.13;3.90;;;19.10;99.90;;;;;;5105507;27;20163;-33
2023/05/30 07:28:28;;;;;;;8.02;4.28;;;19.20;99.90;;;;;;5110248;28;20180;-32
2023/05/30 07:30:54;;;;;;;7.57;3.85;;;19.40;99.90;;;;;;5103925;27;20187;-32
2023/05/30 07:33:19;;;;;;;6.45;3.95;;;19.50;99.90;;;;;;5106749;28;20214;-33
2023/05/30 07:35:45;;;;;;;7.00;4.10;;;19.60;99.90;;;;;;5102752;27;20290;-33
2023/05/30 07:38:11;;;;;;;7.22;4.63;;;19.50;99.90;;;;;;5105590;27;20207;-33
2023/05/30 07:40:37;;;;;;;5.97;3.88;;;19.60;99.90;;;;;;5104764;27;20175;-33
2023/05/30 07:43:03;;;;;;;6.38;3.85;;;19.70;99.90;;;;;;5101554;27;20168;-32
2023/05/30 07:45:29;;;;;;;5.68;4.30;;;19.80;99.90;;;;;;5099769;28;20187;-32
2023/05/30 07:47:55;;;;;;;7.70;4.20;;;19.90;99.90;;;;;;5103082;27;20184;-33
2023/05/30 07:50:21;;;;;;;7.15;4.35;;;20.00;99.90;;;;;;5103734;28;20190;-32
2023/05/30 07:52:46;;;;;;;5.40;4.00;;;20.10;99.90;;;;;;5099051;27;20188;-33
2023/05/30 07:55:12;;;;;;;6.70;4.57;;;20.20;99.90;;;;;;5114435;27;20207;-33
2023/05/30 07:57:38;;;;;;;5.75;3.90;;;20.20;99.90;;;;;;5102261;28;20200;-32
2023/05/30 08:00:08;;;;;;;7.38;4.22;;;20.30;99.90;;;;;;5106681;27;20232;-32
2023/05/30 08:02:37;;;;;;;7.65;4.40;;;20.20;99.90;;;;;;5113947;27;20191;-32
2023/05/30 08:05:04;;;;;;;6.40;4.10;;;20.20;99.90;;;;;;5101126;27;20207;-33
2023/05/30 08:07:31;;;;;;;7.75;4.10;;;20.30;99.90;;;;;;5097029;28;20184;-32
2023/05/30 08:09:58;;;;;;;7.55;3.83;;;20.30;99.90;;;;;;5111422;27;20201;-32
2023/05/30 08:12:28;;;;;;;5.40;3.78;;;20.50;99.90;;;;;;5093773;28;20187;-31
2023/05/30 08:14:58;;;;;;;7.43;4.28;;;20.70;99.90;;;;;;5091487;27;20219;-32
2023/05/30 08:17:25;;;;;;;5.72;4.30;;;20.90;99.90;;;;;;5090696;27;20210;-32
2023/05/30 08:19:55;;;;;;;6.10;4.32;;;21.00;99.90;;;;;;5097952;27;20266;-33
2023/05/30 08:22:22;;;;;;;6.82;4.03;;;21.10;99.90;;;;;;5109899;27;20183;-32
2023/05/30 08:24:55;;;;;;;5.93;4.22;;;21.30;99.90;;;;;;5105320;27;20287;-32
2023/05/30 08:27:23;;;;;;;6.10;4.13;;;21.40;99.90;;;;;;5127221;27;20187;-32
2023/05/30 08:29:49;;;;;;;5.72;4.28;;;21.30;99.90;;;;;;5111803;27;20219;-33
2023/05/30 08:32:16;;;;;;;5.55;3.95;;;21.30;99.90;;;;;;5102104;28;20230;-32
2023/05/30 08:34:42;;;;;;;7.20;4.43;;;21.50;99.90;;;;;;5111334;27;20199;-33
2023/05/30 08:37:08;;;;;;;6.18;4.22;;;21.60;99.90;;;;;;5109960;27;20179;-33
2023/05/30 08:39:34;;;;;;;6.10;3.53;;;21.60;99.90;;;;;;5092887;27;20183;-33
2023/05/30 08:42:00;;;;;;;16.35;6.93;;;21.70;99.90;;;;;;5132065;27;20185;-33
2023/05/30 08:44:28;;;;;;;45.80;17.10;;;21.80;99.90;;;;;;5126833;27;20210;-32
2023/05/30 08:46:55;;;;;;;22.05;9.15;;;22.00;99.90;;;;;;5095522;27;20179;-32
2023/05/30 08:49:23;;;;;;;33.22;10.93;;;22.10;99.90;;;;;;5108442;27;20179;-33
2023/05/30 08:51:50;;;;;;;18.65;8.07;;;22.20;99.90;;;;;;5098626;27;20229;-33
2023/05/30 08:54:25;;;;;;;9.80;5.25;;;22.40;99.90;;;;;;5105281;27;20246;-34
2023/05/30 08:57:03;;;;;;;13.45;6.90;;;22.50;99.90;;;;;;5111537;27;20193;-32
2023/05/30 08:59:30;;;;;;;11.05;6.90;;;22.60;99.90;;;;;;5106807;27;20232;-32
2023/05/30 09:01:58;;;;;;;9.50;5.88;;;22.50;99.90;;;;;;5109259;27;20183;-34
2023/05/30 09:04:25;;;;;;;12.98;7.05;;;22.60;99.90;;;;;;5123741;27;20199;-33
2023/05/30 09:06:52;;;;;;;9.77;6.60;;;22.60;99.90;;;;;;5106407;27;20175;-33
2023/05/30 09:09:21;;;;;;;247.23;91.35;;;22.80;99.90;;;;;;5101562;27;20179;-31
2023/05/30 09:11:47;;;;;;;85.78;33.42;;;22.90;99.90;;;;;;5104040;27;20182;-33
2023/05/30 09:14:14;;;;;;;130.38;43.78;;;23.10;99.90;;;;;;5101712;27;20243;-32
2023/05/30 09:16:39;;;;;;;81.07;30.33;;;23.20;99.90;;;;;;5085166;28;20266;-33
2023/05/30 09:19:07;;;;;;;280.67;120.38;;;23.30;99.90;;;;;;5103489;27;20338;-33
2023/05/30 09:21:34;;;;;;;164.95;80.82;;;23.60;99.90;;;;;;5103972;28;20180;-33
2023/05/30 09:24:04;;;;;;;27.70;16.77;;;23.80;99.90;;;;;;5111245;27;20730;-33
2023/05/30 09:26:32;;;;;;;59.58;41.53;;;24.10;99.90;;;;;;5104065;28;20186;-34
2023/05/30 09:29:17;;;;;;;102.63;67.60;;;24.30;99.90;;;;;;5111477;27;20187;-33
2023/05/30 09:31:42;;;;;;;8.00;5.57;;;24.40;99.90;;;;;;5087874;28;20194;-34
2023/05/30 09:34:16;;;;;;;33.25;20.65;;;24.40;99.90;;;;;;5122637;27;20202;-35
2023/05/30 09:36:53;;;;;;;52.67;32.38;;;24.40;99.90;;;;;;5111649;28;20183;-34
2023/05/30 09:39:18;;;;;;;30.85;19.10;;;24.50;99.90;;;;;;5095852;28;20210;-34
2023/05/30 09:41:48;;;;;;;14.13;9.00;;;24.40;99.90;;;;;;5107063;28;20175;-33
2023/05/30 09:44:18;;;;;;;8.70;5.47;;;24.10;99.90;;;;;;5122324;27;20198;-34
2023/05/30 09:46:44;;;;;;;6.13;4.35;;;23.80;99.90;;;;;;5092227;28;20173;-33
2023/05/30 09:49:13;;;;;;;6.75;4.63;;;23.90;99.90;;;;;;5093280;28;20175;-34
2023/05/30 09:51:40;;;;;;;51.33;25.50;;;23.60;99.90;;;;;;5105396;28;20207;-33
2023/05/30 09:54:09;;;;;;;63.85;32.55;;;23.80;99.90;;;;;;5096954;27;20202;-34
2023/05/30 09:56:37;;;;;;;44.72;21.05;;;24.00;99.90;;;;;;5095599;28;20207;-32
2023/05/30 09:59:11;;;;;;;10.38;5.75;;;24.20;99.90;;;;;;5107293;27;20199;-33
2023/05/30 10:01:45;;;;;;;33.55;18.13;;;24.50;99.90;;;;;;5104038;28;20190;-34
2023/05/30 10:04:18;;;;;;;13.18;8.35;;;24.80;99.90;;;;;;5100098;28;20249;-34
2023/05/30 10:06:52;;;;;;;13.63;10.77;;;24.90;99.90;;;;;;5093331;28;20184;-34
2023/05/30 10:09:23;;;;;;;9.55;8.55;;;25.10;99.90;;;;;;5085468;28;20241;-35
2023/05/30 10:11:50;;;;;;;35.95;31.65;;;25.20;99.90;;;;;;5100833;27;20187;-34
2023/05/30 10:14:17;;;;;;;12.82;11.50;;;25.40;99.90;;;;;;5092338;28;20211;-33
2023/05/30 10:16:51;;;;;;;5.65;4.95;;;25.40;99.90;;;;;;5092385;28;20199;-34
2023/05/30 10:19:23;;;;;;;6.72;5.40;;;25.40;99.90;;;;;;5120213;27;20222;-36
2023/05/30 10:21:51;;;;;;;46.78;42.47;;;25.30;99.90;;;;;;5111107;27;20248;-34
2023/05/30 10:24:19;;;;;;;9.10;7.32;;;25.40;99.90;;;;;;5095961;28;20204;-35
2023/05/30 10:26:56;;;;;;;17.08;15.38;;;25.60;99.90;;;;;;5078822;28;20220;-34
2023/05/30 10:29:25;;;;;;;34.10;28.45;;;25.60;99.90;;;;;;5098010;28;20179;-34
2023/05/30 10:31:53;;;;;;;7.43;6.68;;;25.70;99.90;;;;;;5102444;27;20176;-34
2023/05/30 10:34:27;;;;;;;7.60;4.45;;;25.80;99.90;;;;;;5117492;27;20281;-34
2023/05/30 10:36:54;;;;;;;6.45;3.65;;;25.70;99.90;;;;;;5108842;27;20319;-33
2023/05/30 10:39:39;;;;;;;7.10;4.15;;;25.90;99.90;;;;;;5121831;27;20231;-34
2023/05/30 10:42:16;;;;;;;5.97;4.10;;;26.00;99.90;;;;;;5104345;27;20210;-34
2023/05/30 10:45:08;;;;;;;6.82;4.10;;;26.00;99.90;;;;;;5098769;27;20194;-33
2023/05/30 10:47:47;;;;;;;9.73;4.40;;;26.10;99.90;;;;;;5107781;27;20170;-34
2023/05/30 10:50:19;;;;;;;5.80;3.78;;;25.80;99.90;;;;;;5099971;27;20171;-34
2023/05/30 10:52:47;;;;;;;11.57;8.35;;;25.70;99.90;;;;;;5118076;27;20190;-36
2023/05/30 10:55:15;;;;;;;6.75;4.80;;;25.60;99.90;;;;;;5105065;27;20202;-32
2023/05/30 10:57:41;;;;;;;4.80;3.78;;;25.70;99.90;;;;;;5125895;27;20227;-30
2023/05/30 11:00:23;;;;;;;9.02;3.83;;;25.50;99.90;;;;;;5107059;27;20263;-32
2023/05/30 11:02:54;;;;;;;7.75;3.70;;;25.80;99.90;;;;;;5128128;27;20188;-31
2023/05/30 11:05:30;;;;;;;7.30;3.88;;;25.90;99.90;;;;;;5100444;27;20290;-32
2023/05/30 11:07:58;;;;;;;5.55;4.05;;;26.00;99.90;;;;;;5113023;27;20191;-34
2023/05/30 11:10:26;;;;;;;6.43;4.07;;;26.20;99.90;;;;;;5114624;27;20820;-32
2023/05/30 11:12:52;;;;;;;6.68;3.95;;;26.00;99.90;;;;;;5094094;27;20194;-32
2023/05/30 11:15:33;;;;;;;6.57;3.50;;;26.20;99.90;;;;;;5104130;28;20243;-32
2023/05/30 11:17:58;;;;;;;7.18;3.50;;;26.40;99.90;;;;;;5123298;27;20309;-34
2023/05/30 11:20:24;;;;;;;9.00;4.00;;;26.40;99.90;;;;;;5110897;27;20247;-31
2023/05/30 11:23:02;;;;;;;5.28;3.63;;;26.60;99.90;;;;;;5099970;27;20256;-32
2023/05/30 11:25:31;;;;;;;6.50;3.83;;;26.70;99.90;;;;;;5100941;28;20683;-32
2023/05/30 11:28:03;;;;;;;7.07;3.40;;;27.00;99.90;;;;;;5131397;27;20183;-32
2023/05/30 11:30:30;;;;;;;6.05;3.72;;;27.00;99.90;;;;;;5117755;27;20274;-32
2023/05/30 11:32:58;;;;;;;5.57;3.78;;;26.90;99.90;;;;;;5078835;27;20187;-36
2023/05/30 11:35:27;;;;;;;5.65;3.45;;;26.90;99.90;;;;;;5100096;28;20249;-33
2023/05/30 11:37:55;;;;;;;6.47;4.03;;;26.80;99.90;;;;;;5080872;27;20227;-33
2023/05/30 11:40:21;;;;;;;4.57;3.22;;;26.60;99.90;;;;;;5123750;27;20217;-32
2023/05/30 11:42:54;;;;;;;4.53;3.70;;;26.60;99.90;;;;;;5094327;28;20180;-36
2023/05/30 11:45:29;;;;;;;7.25;3.70;;;26.40;99.90;;;;;;5107039;27;20199;-32
2023/05/30 11:48:09;;;;;;;4.55;3.17;;;26.20;99.90;;;;;;5105606;27;20195;-33
2023/05/30 11:50:42;;;;;;;4.38;3.42;;;26.10;99.90;;;;;;5108376;27;20191;-33
2023/05/30 11:53:15;;;;;;;4.93;3.38;;;26.50;99.90;;;;;;5106174;27;20282;-32
2023/05/30 11:55:48;;;;;;;4.57;3.10;;;26.40;99.90;;;;;;5122347;27;20182;-31
2023/05/30 11:58:15;;;;;;;4.28;3.35;;;26.30;99.90;;;;;;5128761;27;20244;-32
2023/05/30 12:00:42;;;;;;;4.85;3.67;;;26.30;99.90;;;;;;5103063;27;20183;-32
2023/05/30 12:03:16;;;;;;;5.65;3.47;;;26.30;99.90;;;;;;5115340;27;20271;-33
2023/05/30 12:05:43;;;;;;;6.45;3.75;;;26.60;99.90;;;;;;5104952;27;20179;-32
2023/05/30 12:08:09;;;;;;;5.68;3.55;;;26.90;99.90;;;;;;5114178;27;20191;-33
2023/05/30 12:10:34;;;;;;;4.50;3.20;;;27.20;99.90;;;;;;5099305;28;20184;-33
2023/05/30 12:13:01;;;;;;;3.50;3.17;;;27.30;99.90;;;;;;5093786;27;20214;-32
2023/05/30 12:15:27;;;;;;;5.53;3.50;;;27.30;98.80;;;;;;5113456;27;20195;-33
2023/05/30 12:17:53;;;;;;;3.95;3.47;;;26.90;99.90;;;;;;5095685;27;20207;-32
2023/05/30 12:20:20;;;;;;;4.10;3.33;;;27.00;99.70;;;;;;5097930;27;20194;-33
2023/05/30 12:22:47;;;;;;;5.55;3.15;;;27.30;99.70;;;;;;5126913;27;20179;-33
2023/05/30 12:25:14;;;;;;;5.65;3.65;;;27.30;99.10;;;;;;5110578;28;20200;-32
2023/05/30 12:27:46;;;;;;;7.13;3.63;;;27.50;99.20;;;;;;5100806;27;20206;-34
2023/05/30 12:30:17;;;;;;;6.05;3.70;;;27.50;99.90;;;;;;5093663;27;20188;-33
2023/05/30 12:32:45;;;;;;;6.30;3.72;;;27.70;99.60;;;;;;5093487;28;20184;-32
2023/05/30 12:35:12;;;;;;;7.03;3.60;;;27.90;99.30;;;;;;5101349;27;20214;-33
2023/05/30 12:37:39;;;;;;;4.43;3.40;;;27.90;98.90;;;;;;5093298;28;20214;-33
2023/05/30 12:40:06;;;;;;;3.83;3.42;;;28.30;97.90;;;;;;5092031;27;20191;-33
2023/05/30 12:42:34;;;;;;;5.22;3.22;;;28.60;98.60;;;;;;5110539;27;20233;-32
2023/05/30 12:45:03;;;;;;;6.88;3.80;;;28.00;98.60;;;;;;5121596;27;20191;-32
2023/05/30 12:47:29;;;;;;;4.38;3.40;;;28.00;98.00;;;;;;5113484;27;20658;-31
2023/05/30 12:49:56;;;;;;;9.35;4.13;;;28.10;98.30;;;;;;5116090;27;20180;-31
2023/05/30 12:52:27;;;;;;;4.55;3.33;;;28.20;98.50;;;;;;5104507;28;20182;-33
2023/05/30 12:54:53;;;;;;;5.53;3.63;;;28.40;98.20;;;;;;5090979;27;20207;-32
2023/05/30 12:57:25;;;;;;;4.95;3.78;;;28.40;98.00;;;;;;5112939;27;20175;-33
2023/05/30 12:59:54;;;;;;;7.40;3.65;;;28.50;97.60;;;;;;5104747;27;20210;-32
2023/05/30 13:02:24;;;;;;;4.07;3.42;;;28.60;97.90;;;;;;5113749;27;20179;-32
2023/05/30 13:04:51;;;;;;;3.97;3.58;;;28.60;97.20;;;;;;5113208;27;20201;-31
2023/05/30 13:07:16;;;;;;;5.68;3.72;;;28.50;96.80;;;;;;5120822;27;20198;-33
2023/05/30 13:09:42;;;;;;;4.10;3.70;;;28.60;97.30;;;;;;5104923;28;20175;-31
2023/05/30 13:12:08;;;;;;;5.70;3.55;;;28.80;96.40;;;;;;5092844;27;20180;-31
2023/05/30 13:14:40;;;;;;;7.45;3.90;;;28.90;96.60;;;;;;5087160;27;20207;-32
2023/05/30 13:17:08;;;;;;;4.88;3.45;;;29.00;96.00;;;;;;5110720;27;20230;-32
2023/05/30 13:19:35;;;;;;;5.97;4.20;;;28.90;97.20;;;;;;5113873;27;20198;-32